createdAt,value
2023-05-12T00:00:15.421Z,44.74
2023-05-12T00:01:20.424Z,44.50
2023-05-12T00:02:22.792Z,44.64
2023-05-12T00:03:25.384Z,44.90
2023-05-12T00:04:28.324Z,45.08
2023-05-12T00:05:30.930Z,44.86
2023-05-12T00:06:33.395Z,45.05
2023-05-12T00:07:35.660Z,44.95
2023-05-12T00:08:38.030Z,45.36
2023-05-12T00:09:42.002Z,45.57
2023-05-12T00:10:44.322Z,45.61
2023-05-12T00:11:48.607Z,45.43
2023-05-12T00:12:50.927Z,45.41
2023-05-12T00:13:55.198Z,45.51
2023-05-12T00:14:57.683Z,45.66
2023-05-12T00:16:00.112Z,45.57
2023-05-12T00:17:04.357Z,45.54
2023-05-12T00:18:06.726Z,45.51
2023-05-12T00:19:09.266Z,45.97
2023-05-12T00:20:12.077Z,45.77
2023-05-12T00:21:14.644Z,46.04
2023-05-12T00:22:17.359Z,45.71
2023-05-12T00:23:19.691Z,45.89
2023-05-12T00:24:22.079Z,46.00
2023-05-12T00:25:24.387Z,45.89
2023-05-12T00:26:26.627Z,46.01
2023-05-12T00:27:32.178Z,46.01
2023-05-12T00:28:34.855Z,45.86
2023-05-12T00:29:37.146Z,46.12
2023-05-12T00:30:39.428Z,46.09
2023-05-12T00:31:42.176Z,46.03
2023-05-12T00:32:44.548Z,46.01
2023-05-12T00:33:46.929Z,46.23
2023-05-12T00:34:50.593Z,46.09
2023-05-12T00:35:52.903Z,46.38
2023-05-12T00:36:55.168Z,46.10
2023-05-12T00:37:57.477Z,46.11
2023-05-12T00:38:59.728Z,45.94
2023-05-12T00:40:01.997Z,46.07
2023-05-12T00:41:04.863Z,46.20
2023-05-12T00:42:07.523Z,45.87
2023-05-12T00:43:10.085Z,46.05
2023-05-12T00:44:12.402Z,46.26
2023-05-12T00:45:14.721Z,46.50
2023-05-12T00:46:18.240Z,46.33
2023-05-12T00:47:21.809Z,46.23
2023-05-12T00:48:24.585Z,46.35
2023-05-12T00:49:27.643Z,46.62
2023-05-12T00:50:30.044Z,46.58
2023-05-12T00:51:32.521Z,46.51
2023-05-12T00:52:35.614Z,46.42
2023-05-12T00:53:48.344Z,46.61
2023-05-12T00:54:51.937Z,46.54
2023-05-12T00:55:55.823Z,46.29
2023-05-12T00:56:58.488Z,46.42
2023-05-12T00:58:00.912Z,46.79
2023-05-12T00:59:03.985Z,46.71
2023-05-12T01:00:07.343Z,46.75
2023-05-12T01:01:10.180Z,46.91
2023-05-12T01:02:12.681Z,46.76
2023-05-12T01:03:15.188Z,46.68
2023-05-12T01:04:18.029Z,46.98
2023-05-12T01:05:22.664Z,46.73
2023-05-12T01:06:33.191Z,47.17
2023-05-12T01:07:36.725Z,46.95
2023-05-12T01:08:40.421Z,47.28
2023-05-12T01:09:42.762Z,47.07
2023-05-12T01:10:47.608Z,47.18
2023-05-12T01:11:52.784Z,47.21
2023-05-12T01:12:55.115Z,47.44
2023-05-12T01:13:57.397Z,47.02
2023-05-12T01:15:00.462Z,46.90
2023-05-12T01:16:04.756Z,47.08
2023-05-12T01:17:13.755Z,47.07
2023-05-12T01:18:20.584Z,47.51
2023-05-12T01:19:54.316Z,46.90
2023-05-12T01:20:57.492Z,47.36
2023-05-12T01:22:00.978Z,47.54
2023-05-12T01:23:03.726Z,47.52
2023-05-12T01:24:08.744Z,47.55
2023-05-12T01:25:13.743Z,47.53
2023-05-12T01:26:16.802Z,47.51
2023-05-12T01:27:21.570Z,47.88
2023-05-12T01:28:24.080Z,47.51
2023-05-12T01:29:27.423Z,47.71
2023-05-12T01:30:30.778Z,47.64
2023-05-12T01:31:33.691Z,47.66
2023-05-12T01:32:37.383Z,47.85
2023-05-12T01:33:42.294Z,47.86
2023-05-12T01:34:45.286Z,47.92
2023-05-12T01:35:47.621Z,47.76
2023-05-12T01:36:51.562Z,47.92
2023-05-12T01:37:54.544Z,47.89
2023-05-12T01:38:56.945Z,47.63
2023-05-12T01:40:00.322Z,47.90
2023-05-12T01:41:02.567Z,48.11
2023-05-12T01:42:06.155Z,48.01
2023-05-12T01:43:09.954Z,48.00
2023-05-12T01:44:12.414Z,47.87
2023-05-12T01:45:15.326Z,48.07
2023-05-12T01:46:17.893Z,48.23
2023-05-12T01:47:21.742Z,48.41
2023-05-12T01:48:30.666Z,48.24
2023-05-12T01:49:34.479Z,48.33
2023-05-12T01:50:37.060Z,48.50
2023-05-12T01:51:43.083Z,48.17
2023-05-12T01:52:46.493Z,48.50
2023-05-12T01:53:51.048Z,48.39
2023-05-12T01:54:53.927Z,48.43
2023-05-12T01:55:57.165Z,48.64
2023-05-12T01:57:01.122Z,48.33
2023-05-12T01:58:03.641Z,48.53
2023-05-12T01:59:07.332Z,48.54
2023-05-12T02:00:10.318Z,48.75
2023-05-12T02:01:15.522Z,48.76
2023-05-12T02:02:18.037Z,48.59
2023-05-12T02:03:20.425Z,48.40
2023-05-12T02:04:23.302Z,48.71
2023-05-12T02:05:26.477Z,48.90
2023-05-12T02:06:30.439Z,48.50
2023-05-12T02:07:32.971Z,48.71
2023-05-12T02:08:35.287Z,48.61
2023-05-12T02:09:38.076Z,48.76
2023-05-12T02:10:40.537Z,48.65
2023-05-12T02:11:42.892Z,48.87
2023-05-12T02:12:45.337Z,48.74
2023-05-12T02:13:48.320Z,48.80
2023-05-12T02:14:50.633Z,49.07
2023-05-12T02:15:53.295Z,48.88
2023-05-12T02:16:56.531Z,49.20
2023-05-12T02:18:00.867Z,49.02
2023-05-12T02:19:03.304Z,49.03
2023-05-12T02:20:08.309Z,49.41
2023-05-12T02:21:11.047Z,49.57
2023-05-12T02:22:13.369Z,49.49
2023-05-12T02:23:15.935Z,49.74
2023-05-12T02:24:18.781Z,49.80
2023-05-12T02:25:21.849Z,49.50
2023-05-12T02:26:24.466Z,49.94
2023-05-12T02:27:27.152Z,49.89
2023-05-12T02:28:30.269Z,49.93
2023-05-12T02:29:32.950Z,49.78
2023-05-12T02:30:35.470Z,49.99
2023-05-12T02:31:37.864Z,50.20
2023-05-12T02:32:48.690Z,50.33
2023-05-12T02:33:52.203Z,50.32
2023-05-12T02:34:56.383Z,50.33
2023-05-12T02:35:59.158Z,50.67
2023-05-12T02:37:01.449Z,50.52
2023-05-12T02:38:05.109Z,50.66
2023-05-12T02:39:08.286Z,50.80
2023-05-12T02:40:11.623Z,50.64
2023-05-12T02:41:15.433Z,50.71
2023-05-12T02:42:17.970Z,50.83
2023-05-12T02:43:20.905Z,50.85
2023-05-12T02:44:23.684Z,50.82
2023-05-12T02:45:26.374Z,51.14
2023-05-12T02:46:29.621Z,51.14
2023-05-12T02:47:33.256Z,51.15
2023-05-12T02:48:35.564Z,51.03
2023-05-12T02:49:38.032Z,51.02
2023-05-12T02:50:42.175Z,50.99
2023-05-12T02:51:45.408Z,51.21
2023-05-12T02:52:49.251Z,51.19
2023-05-12T02:53:51.515Z,51.44
2023-05-12T02:54:53.795Z,51.50
2023-05-12T02:55:56.135Z,51.41
2023-05-12T02:56:58.465Z,51.32
2023-05-12T02:58:00.880Z,51.27
2023-05-12T02:59:03.201Z,51.09
2023-05-12T03:00:06.959Z,51.21
2023-05-12T03:01:12.556Z,51.66
2023-05-12T03:02:17.905Z,51.54
2023-05-12T03:03:20.638Z,51.39
2023-05-12T03:04:23.722Z,51.62
2023-05-12T03:05:26.268Z,51.78
2023-05-12T03:06:30.510Z,51.90
2023-05-12T03:07:34.127Z,52.04
2023-05-12T03:08:36.818Z,52.04
2023-05-12T03:09:39.189Z,52.15
2023-05-12T03:10:41.496Z,52.28
2023-05-12T03:11:43.741Z,52.18
2023-05-12T03:12:46.087Z,52.50
2023-05-12T03:13:49.834Z,52.51
2023-05-12T03:14:52.164Z,52.50
2023-05-12T03:15:54.731Z,52.40
2023-05-12T03:16:57.314Z,52.89
2023-05-12T03:17:59.711Z,52.76
2023-05-12T03:19:02.909Z,52.90
2023-05-12T03:20:06.250Z,52.60
2023-05-12T03:21:08.585Z,52.65
2023-05-12T03:22:12.076Z,52.89
2023-05-12T03:23:14.717Z,52.93
2023-05-12T03:24:17.294Z,52.99
2023-05-12T03:25:20.004Z,53.11
2023-05-12T03:26:22.558Z,53.25
2023-05-12T03:27:26.475Z,53.22
2023-05-12T03:28:29.092Z,53.21
2023-05-12T03:29:32.070Z,53.08
2023-05-12T03:30:34.808Z,53.05
2023-05-12T03:31:37.453Z,53.03
2023-05-12T03:32:40.744Z,52.85
2023-05-12T03:33:45.194Z,52.77
2023-05-12T03:34:47.476Z,52.65
2023-05-12T03:35:50.951Z,52.96
2023-05-12T03:36:53.597Z,52.83
2023-05-12T03:37:55.899Z,52.78
2023-05-12T03:38:58.240Z,52.79
2023-05-12T03:40:00.573Z,52.97
2023-05-12T03:41:06.989Z,52.85
2023-05-12T03:42:10.403Z,52.63
2023-05-12T03:43:13.441Z,52.91
2023-05-12T03:44:17.010Z,52.76
2023-05-12T03:45:19.287Z,52.73
2023-05-12T03:46:21.643Z,52.69
2023-05-12T03:47:24.132Z,52.77
2023-05-12T03:48:27.018Z,52.73
2023-05-12T03:49:29.331Z,52.93
2023-05-12T03:50:31.599Z,52.93
2023-05-12T03:51:35.129Z,52.68
2023-05-12T03:52:38.736Z,52.67
2023-05-12T03:53:45.523Z,52.76
2023-05-12T03:54:48.567Z,52.58
2023-05-12T03:55:51.391Z,52.79
2023-05-12T03:56:53.917Z,52.62
2023-05-12T03:57:56.148Z,52.59
2023-05-12T03:58:58.568Z,52.57
2023-05-12T04:00:01.196Z,52.63
2023-05-12T04:01:04.071Z,52.53
2023-05-12T04:02:08.007Z,52.51
2023-05-12T04:03:10.528Z,52.58
2023-05-12T04:04:13.413Z,52.58
2023-05-12T04:05:16.335Z,52.64
2023-05-12T04:06:18.615Z,52.55
2023-05-12T04:07:20.995Z,52.67
2023-05-12T04:08:23.313Z,52.71
2023-05-12T04:09:25.633Z,52.42
2023-05-12T04:10:27.991Z,52.12
2023-05-12T04:11:30.331Z,52.08
2023-05-12T04:12:33.042Z,51.95
2023-05-12T04:13:35.737Z,51.78
2023-05-12T04:14:43.262Z,51.75
2023-05-12T04:15:45.903Z,51.70
2023-05-12T04:16:48.620Z,51.89
2023-05-12T04:17:51.323Z,52.00
2023-05-12T04:18:55.393Z,52.42
2023-05-12T04:19:57.717Z,52.15
2023-05-12T04:21:00.207Z,52.24
2023-05-12T04:22:02.547Z,52.48
2023-05-12T04:23:06.638Z,52.30
2023-05-12T04:24:09.115Z,52.39
2023-05-12T04:25:12.339Z,52.48
2023-05-12T04:26:16.088Z,52.57
2023-05-12T04:27:18.326Z,52.49
2023-05-12T04:28:20.981Z,52.51
2023-05-12T04:29:23.871Z,52.59
2023-05-12T04:30:26.224Z,52.59
2023-05-12T04:31:28.852Z,52.58
2023-05-12T04:32:31.505Z,52.74
2023-05-12T04:33:33.920Z,52.50
2023-05-12T04:34:36.593Z,52.88
2023-05-12T04:35:39.038Z,52.54
2023-05-12T04:36:41.560Z,52.82
2023-05-12T04:37:43.883Z,52.80
2023-05-12T04:38:46.167Z,52.76
2023-05-12T04:39:48.563Z,53.00
2023-05-12T04:40:50.939Z,53.08
2023-05-12T04:41:53.230Z,52.98
2023-05-12T04:42:56.031Z,52.71
2023-05-12T04:44:00.931Z,52.90
2023-05-12T04:45:03.698Z,52.86
2023-05-12T04:46:06.222Z,52.93
2023-05-12T04:47:08.538Z,52.88
2023-05-12T04:48:11.224Z,52.63
2023-05-12T04:49:13.546Z,52.75
2023-05-12T04:50:15.963Z,52.33
2023-05-12T04:51:18.275Z,52.22
2023-05-12T04:52:21.492Z,52.07
2023-05-12T04:53:24.107Z,51.75
2023-05-12T04:54:26.400Z,51.89
2023-05-12T04:55:29.122Z,51.65
2023-05-12T04:56:31.434Z,51.42
2023-05-12T04:57:33.922Z,51.43
2023-05-12T04:58:36.601Z,51.16
2023-05-12T04:59:41.193Z,50.84
2023-05-12T05:00:44.181Z,51.12
2023-05-12T05:01:46.801Z,50.95
2023-05-12T05:02:49.992Z,50.83
2023-05-12T05:03:52.777Z,50.96
2023-05-12T05:04:55.579Z,50.40
2023-05-12T05:05:59.916Z,50.45
2023-05-12T05:07:03.012Z,50.15
2023-05-12T05:08:06.278Z,49.83
2023-05-12T05:09:09.207Z,49.57
2023-05-12T05:10:11.852Z,49.33
2023-05-12T05:11:15.873Z,49.04
2023-05-12T05:12:18.903Z,48.52
2023-05-12T05:13:21.198Z,48.29
2023-05-12T05:14:23.784Z,48.01
2023-05-12T05:15:26.147Z,47.46
2023-05-12T05:16:29.063Z,47.58
2023-05-12T05:17:31.400Z,47.08
2023-05-12T05:18:33.834Z,47.14
2023-05-12T05:19:50.949Z,47.00
2023-05-12T05:20:59.055Z,46.48
2023-05-12T05:22:01.969Z,46.14
2023-05-12T05:23:04.229Z,46.33
2023-05-12T05:24:09.080Z,46.39
2023-05-12T05:25:11.964Z,46.18
2023-05-12T05:26:14.410Z,45.99
2023-05-12T05:27:17.113Z,45.61
2023-05-12T05:28:20.173Z,45.38
2023-05-12T05:29:22.647Z,45.27
2023-05-12T05:30:25.089Z,45.27
2023-05-12T05:31:29.153Z,44.67
2023-05-12T05:32:32.598Z,44.20
2023-05-12T05:33:35.584Z,44.03
2023-05-12T05:34:39.148Z,43.63
2023-05-12T05:35:42.705Z,43.53
2023-05-12T05:36:46.044Z,43.06
2023-05-12T05:37:48.475Z,42.91
2023-05-12T05:38:50.765Z,42.84
2023-05-12T05:39:53.167Z,42.77
2023-05-12T05:40:55.465Z,42.58
2023-05-12T05:41:59.307Z,42.30
2023-05-12T05:43:01.633Z,42.08
2023-05-12T05:44:04.036Z,42.11
2023-05-12T05:45:07.001Z,42.00
2023-05-12T05:46:09.394Z,41.37
2023-05-12T05:47:11.852Z,41.38
2023-05-12T05:48:14.284Z,41.08
2023-05-12T05:49:17.147Z,41.08
2023-05-12T05:50:19.721Z,40.73
2023-05-12T05:51:22.171Z,40.83
2023-05-12T05:52:24.666Z,40.43
2023-05-12T05:53:27.861Z,40.12
2023-05-12T05:54:30.633Z,40.14
2023-05-12T05:55:33.862Z,39.81
2023-05-12T05:56:36.631Z,39.74
2023-05-12T05:57:39.035Z,39.68
2023-05-12T05:58:41.761Z,39.14
2023-05-12T05:59:44.114Z,39.30
2023-05-12T06:00:46.677Z,39.21
2023-05-12T06:01:48.997Z,39.26
2023-05-12T06:02:51.454Z,39.05
2023-05-12T06:03:55.959Z,39.05
2023-05-12T06:05:00.240Z,38.36
2023-05-12T06:06:02.503Z,38.52
2023-05-12T06:07:05.370Z,38.24
2023-05-12T06:08:09.498Z,37.72
2023-05-12T06:09:12.620Z,37.82
2023-05-12T06:10:14.908Z,37.62
2023-05-12T06:11:17.861Z,37.37
2023-05-12T06:12:20.686Z,36.90
2023-05-12T06:13:23.031Z,37.11
2023-05-12T06:14:25.449Z,36.48
2023-05-12T06:15:27.774Z,36.71
2023-05-12T06:16:30.252Z,36.61
2023-05-12T06:17:32.895Z,36.07
2023-05-12T06:18:38.306Z,36.07
2023-05-12T06:19:41.384Z,35.95
2023-05-12T06:20:43.613Z,35.98
2023-05-12T06:21:45.979Z,36.26
2023-05-12T06:22:51.000Z,36.25
2023-05-12T06:23:55.022Z,35.97
2023-05-12T06:24:57.347Z,36.09
2023-05-12T06:25:59.621Z,36.17
2023-05-12T06:27:03.704Z,35.81
2023-05-12T06:28:05.996Z,35.87
2023-05-12T06:29:08.480Z,35.84
2023-05-12T06:30:13.569Z,36.02
2023-05-12T06:31:17.305Z,35.65
2023-05-12T06:32:19.691Z,35.88
2023-05-12T06:33:22.017Z,35.53
2023-05-12T06:34:24.584Z,35.70
2023-05-12T06:35:26.861Z,35.85
2023-05-12T06:36:30.350Z,35.66
2023-05-12T06:37:32.592Z,35.12
2023-05-12T06:38:34.836Z,35.12
2023-05-12T06:39:37.314Z,35.25
2023-05-12T06:40:39.658Z,34.86
2023-05-12T06:41:42.087Z,35.10
2023-05-12T06:42:53.257Z,34.61
2023-05-12T06:43:56.200Z,34.66
2023-05-12T06:45:04.182Z,34.58
2023-05-12T06:46:08.810Z,34.80
2023-05-12T06:47:11.279Z,34.90
2023-05-12T06:48:13.506Z,35.01
2023-05-12T06:49:15.879Z,34.75
2023-05-12T06:50:18.261Z,34.63
2023-05-12T06:51:20.745Z,34.49
2023-05-12T06:52:24.566Z,34.33
2023-05-12T06:53:27.508Z,34.04
2023-05-12T06:54:29.874Z,33.98
2023-05-12T06:55:34.366Z,34.10
2023-05-12T06:56:36.757Z,33.85
2023-05-12T06:57:39.452Z,33.54
2023-05-12T06:58:42.010Z,33.33
2023-05-12T06:59:44.307Z,33.12
2023-05-12T07:00:46.639Z,33.04
2023-05-12T07:01:49.502Z,33.28
2023-05-12T07:02:53.462Z,33.14
2023-05-12T07:03:55.897Z,32.98
2023-05-12T07:04:58.307Z,32.81
2023-05-12T07:06:01.145Z,33.02
2023-05-12T07:07:03.558Z,32.90
2023-05-12T07:08:06.070Z,32.99
2023-05-12T07:09:08.409Z,33.14
2023-05-12T07:10:11.274Z,32.67
2023-05-12T07:11:13.745Z,32.32
2023-05-12T07:12:16.116Z,32.43
2023-05-12T07:13:19.237Z,31.63
2023-05-12T07:14:21.472Z,32.08
2023-05-12T07:15:23.840Z,31.86
2023-05-12T07:16:26.564Z,32.00
2023-05-12T07:17:30.424Z,31.92
2023-05-12T07:18:32.802Z,31.83
2023-05-12T07:19:35.771Z,31.95
2023-05-12T07:20:42.626Z,31.86
2023-05-12T07:21:45.115Z,31.44
2023-05-12T07:22:47.431Z,31.72
2023-05-12T07:23:49.690Z,31.69
2023-05-12T07:24:51.943Z,31.38
2023-05-12T07:25:54.243Z,31.23
2023-05-12T07:26:56.944Z,31.39
2023-05-12T07:27:59.172Z,31.02
2023-05-12T07:29:02.750Z,30.89
2023-05-12T07:30:06.683Z,30.88
2023-05-12T07:31:09.022Z,30.42
2023-05-12T07:32:11.416Z,30.47
2023-05-12T07:33:13.779Z,30.16
2023-05-12T07:34:16.116Z,29.73
2023-05-12T07:35:18.697Z,29.77
2023-05-12T07:36:22.075Z,29.27
2023-05-12T07:37:24.586Z,28.70
2023-05-12T07:38:26.945Z,28.32
2023-05-12T07:39:31.197Z,28.24
2023-05-12T07:40:33.570Z,28.66
2023-05-12T07:41:36.205Z,28.67
2023-05-12T07:42:38.447Z,27.85
2023-05-12T07:43:40.701Z,27.97
2023-05-12T07:44:43.092Z,27.53
2023-05-12T07:45:45.911Z,27.54
2023-05-12T07:46:48.277Z,27.55
2023-05-12T07:47:52.227Z,27.60
2023-05-12T07:48:54.678Z,27.49
2023-05-12T07:49:56.957Z,27.35
2023-05-12T07:50:59.221Z,28.54
2023-05-12T07:52:01.590Z,27.54
2023-05-12T07:53:04.926Z,27.59
2023-05-12T07:54:07.564Z,27.31
2023-05-12T07:55:11.716Z,27.39
2023-05-12T07:56:14.102Z,27.10
2023-05-12T07:57:16.933Z,27.51
2023-05-12T07:58:19.179Z,26.77
2023-05-12T07:59:21.483Z,26.75
2023-05-12T08:00:23.907Z,26.80
2023-05-12T08:01:26.246Z,26.66
2023-05-12T08:02:28.621Z,26.74
2023-05-12T08:03:31.125Z,26.62
2023-05-12T08:04:34.100Z,26.50
2023-05-12T08:05:36.775Z,25.62
2023-05-12T08:06:39.168Z,25.65
2023-05-12T08:07:43.993Z,26.57
2023-05-12T08:08:46.439Z,25.44
2023-05-12T08:09:48.874Z,25.63
2023-05-12T08:10:51.196Z,25.60
2023-05-12T08:11:53.498Z,26.09
2023-05-12T08:12:56.811Z,25.81
2023-05-12T08:13:59.453Z,25.93
2023-05-12T08:15:01.866Z,26.17
2023-05-12T08:16:04.367Z,26.52
2023-05-12T08:17:07.979Z,26.22
2023-05-12T08:18:11.077Z,26.26
2023-05-12T08:19:14.139Z,25.39
2023-05-12T08:20:19.137Z,24.83
2023-05-12T08:21:21.556Z,25.02
2023-05-12T08:22:24.379Z,25.61
2023-05-12T08:23:26.667Z,25.57
2023-05-12T08:24:29.078Z,25.74
2023-05-12T08:25:31.575Z,25.00
2023-05-12T08:26:33.967Z,25.12
2023-05-12T08:27:36.270Z,24.96
2023-05-12T08:28:38.653Z,24.76
2023-05-12T08:29:41.085Z,24.54
2023-05-12T08:30:45.276Z,23.96
2023-05-12T08:31:47.712Z,24.13
2023-05-12T08:32:50.106Z,23.57
2023-05-12T08:34:08.622Z,23.43
2023-05-12T08:35:12.467Z,23.43
2023-05-12T08:36:14.835Z,23.26
2023-05-12T08:37:17.224Z,23.49
2023-05-12T08:38:19.774Z,23.62
2023-05-12T08:39:22.906Z,23.32
2023-05-12T08:40:26.589Z,23.73
2023-05-12T08:41:45.282Z,24.55
2023-05-12T08:43:13.199Z,24.12
2023-05-12T08:44:16.106Z,23.97
2023-05-12T08:45:19.092Z,24.10
2023-05-12T08:46:22.767Z,24.27
2023-05-12T08:47:26.272Z,24.13
2023-05-12T08:48:30.437Z,23.56
2023-05-12T08:49:35.381Z,23.80
2023-05-12T08:50:39.119Z,23.83
2023-05-12T08:51:49.910Z,22.96
2023-05-12T08:52:59.602Z,23.40
2023-05-12T08:54:04.689Z,23.24
2023-05-12T08:55:09.344Z,23.14
2023-05-12T08:57:18.502Z,23.41
2023-05-12T08:58:27.810Z,23.99
2023-05-12T08:59:44.217Z,23.17
2023-05-12T09:00:47.389Z,23.70
2023-05-12T09:01:51.370Z,23.09
2023-05-12T09:02:55.909Z,22.96
2023-05-12T09:03:58.687Z,23.42
2023-05-12T09:05:04.026Z,24.06
2023-05-12T09:06:07.939Z,24.31
2023-05-12T09:07:11.236Z,23.42
2023-05-12T09:08:13.875Z,23.36
2023-05-12T09:09:17.435Z,23.86
2023-05-12T09:10:34.492Z,23.67
2023-05-12T09:11:40.274Z,23.56
2023-05-12T09:12:45.262Z,23.30
2023-05-12T09:13:54.336Z,23.66
2023-05-12T09:15:08.187Z,24.02
2023-05-12T09:16:13.422Z,23.67
2023-05-12T09:17:17.588Z,23.98
2023-05-12T09:18:19.946Z,23.99
2023-05-12T09:19:22.749Z,23.71
2023-05-12T09:20:31.830Z,23.24
2023-05-12T09:21:34.804Z,23.50
2023-05-12T09:22:37.134Z,23.76
2023-05-12T09:23:39.506Z,23.50
2023-05-12T09:24:41.804Z,23.83
2023-05-12T09:25:44.960Z,24.08
2023-05-12T09:26:49.367Z,24.30
2023-05-12T09:27:56.803Z,24.35
2023-05-12T09:29:07.170Z,24.90
2023-05-12T09:30:09.637Z,24.74
2023-05-12T09:31:19.888Z,24.93
2023-05-12T09:32:33.253Z,25.02
2023-05-12T09:33:37.031Z,24.34
2023-05-12T09:34:41.761Z,24.62
2023-05-12T09:35:45.866Z,24.32
2023-05-12T09:36:56.608Z,24.75
2023-05-12T09:38:06.248Z,24.64
2023-05-12T09:39:10.325Z,24.51
2023-05-12T09:40:13.945Z,24.59
2023-05-12T09:41:23.563Z,24.60
2023-05-12T09:42:29.669Z,24.91
2023-05-12T09:43:32.298Z,24.39
2023-05-12T09:44:34.735Z,24.43
2023-05-12T09:45:39.144Z,24.45
2023-05-12T09:46:41.527Z,24.31
2023-05-12T09:47:44.937Z,24.29
2023-05-12T09:48:48.470Z,24.11
2023-05-12T09:49:52.441Z,24.26
2023-05-12T09:50:56.152Z,24.37
2023-05-12T09:51:59.380Z,24.60
2023-05-12T09:53:01.871Z,24.68
2023-05-12T09:54:06.464Z,24.82
2023-05-12T09:55:12.478Z,24.65
2023-05-12T09:56:16.593Z,24.97
2023-05-12T09:57:23.058Z,24.86
2023-05-12T09:58:28.284Z,24.94
2023-05-12T09:59:36.531Z,24.87
2023-05-12T10:01:06.009Z,24.94
2023-05-12T10:02:09.513Z,25.04
2023-05-12T10:03:15.812Z,24.95
2023-05-12T10:04:18.563Z,24.85
2023-05-12T10:05:22.516Z,24.70
2023-05-12T10:06:31.565Z,25.30
2023-05-12T10:07:34.674Z,25.14
2023-05-12T10:08:44.037Z,25.35
2023-05-12T10:09:48.588Z,25.31
2023-05-12T10:10:53.387Z,25.53
2023-05-12T10:11:58.571Z,24.88
2023-05-12T10:13:01.239Z,25.58
2023-05-12T10:14:05.343Z,25.73
2023-05-12T10:15:09.813Z,24.92
2023-05-12T10:16:13.007Z,25.17
2023-05-12T10:17:15.803Z,24.96
2023-05-12T10:18:18.882Z,24.67
2023-05-12T10:19:21.700Z,25.48
2023-05-12T10:20:26.212Z,25.68
2023-05-12T10:21:28.572Z,25.56
2023-05-12T10:22:31.462Z,25.78
2023-05-12T10:23:37.781Z,24.94
2023-05-12T10:24:41.471Z,24.90
2023-05-12T10:25:45.765Z,24.97
2023-05-12T10:26:48.213Z,25.01
2023-05-12T10:27:52.668Z,24.91
2023-05-12T10:28:55.385Z,25.24
2023-05-12T10:29:58.159Z,25.22
2023-05-12T10:31:00.650Z,24.63
2023-05-12T10:32:03.052Z,24.88
2023-05-12T10:33:06.100Z,24.59
2023-05-12T10:34:17.076Z,24.69
2023-05-12T10:35:19.711Z,24.49
2023-05-12T10:36:22.160Z,24.55
2023-05-12T10:37:24.468Z,25.04
2023-05-12T10:38:26.973Z,25.21
2023-05-12T10:39:31.622Z,25.55
2023-05-12T10:40:33.929Z,25.49
2023-05-12T10:41:36.536Z,25.58
2023-05-12T10:42:41.692Z,25.41
2023-05-12T10:43:49.310Z,24.93
2023-05-12T10:44:56.695Z,24.90
2023-05-12T10:46:22.736Z,24.99
2023-05-12T10:47:37.928Z,24.75
2023-05-12T10:48:56.629Z,24.64
2023-05-12T10:49:59.855Z,24.31
2023-05-12T10:51:09.950Z,24.26
2023-05-12T10:52:13.655Z,24.52
2023-05-12T10:53:16.378Z,24.06
2023-05-12T10:54:21.301Z,23.85
2023-05-12T10:55:52.486Z,24.38
2023-05-12T10:57:00.948Z,24.10
2023-05-12T10:58:10.410Z,24.07
2023-05-12T10:59:19.266Z,24.14
2023-05-12T11:00:25.574Z,23.99
2023-05-12T11:01:33.745Z,24.24
2023-05-12T11:02:38.607Z,24.38
2023-05-12T11:03:43.555Z,24.35
2023-05-12T11:04:50.298Z,24.71
2023-05-12T11:06:05.062Z,24.70
2023-05-12T11:07:09.981Z,25.01
2023-05-12T11:08:13.965Z,24.68
2023-05-12T11:09:17.724Z,24.33
2023-05-12T11:10:21.570Z,24.94
2023-05-12T11:11:26.373Z,24.89
2023-05-12T11:12:33.292Z,25.24
2023-05-12T11:13:35.842Z,25.03
2023-05-12T11:14:39.950Z,24.93
2023-05-12T11:15:44.778Z,24.69
2023-05-12T11:16:47.219Z,24.42
2023-05-12T11:17:49.566Z,24.42
2023-05-12T11:19:05.136Z,24.62
2023-05-12T11:20:10.054Z,24.36
2023-05-12T11:21:12.967Z,24.13
2023-05-12T11:22:20.109Z,24.29
2023-05-12T11:23:29.787Z,24.29
2023-05-12T11:24:32.168Z,24.08
2023-05-12T11:25:34.428Z,24.03
2023-05-12T11:26:36.733Z,24.30
2023-05-12T11:27:42.595Z,23.98
2023-05-12T11:28:44.952Z,23.87
2023-05-12T11:30:00.348Z,24.39
2023-05-12T11:31:02.990Z,24.30
2023-05-12T11:32:05.440Z,24.48
2023-05-12T11:33:09.073Z,24.79
2023-05-12T11:34:13.414Z,25.03
2023-05-12T11:35:18.119Z,24.91
2023-05-12T11:36:21.763Z,25.11
2023-05-12T11:37:24.231Z,24.87
2023-05-12T11:38:28.512Z,25.30
2023-05-12T11:39:32.535Z,25.30
2023-05-12T11:40:41.095Z,25.29
2023-05-12T11:41:44.231Z,25.29
2023-05-12T11:42:49.552Z,25.11
2023-05-12T11:43:52.626Z,25.58
2023-05-12T11:44:55.911Z,25.42
2023-05-12T11:45:59.980Z,25.52
2023-05-12T11:47:03.497Z,25.51
2023-05-12T11:48:15.187Z,25.68
2023-05-12T11:49:17.561Z,25.89
2023-05-12T11:50:25.456Z,25.97
2023-05-12T11:51:28.808Z,25.99
2023-05-12T11:52:32.356Z,25.92
2023-05-12T11:53:40.929Z,26.13
2023-05-12T11:55:01.004Z,26.44
2023-05-12T11:56:03.690Z,26.57
2023-05-12T11:57:06.246Z,26.31
2023-05-12T11:58:08.674Z,26.63
2023-05-12T11:59:10.962Z,26.66
2023-05-12T12:00:14.513Z,26.57
2023-05-12T12:01:16.859Z,26.65
2023-05-12T12:02:22.141Z,26.83
2023-05-12T12:03:25.881Z,26.89
2023-05-12T12:04:41.983Z,27.23
2023-05-12T12:05:46.101Z,27.35
2023-05-12T12:06:48.702Z,27.18
2023-05-12T12:07:50.968Z,27.06
2023-05-12T12:09:00.064Z,27.03
2023-05-12T12:10:16.689Z,27.11
2023-05-12T12:11:21.487Z,27.42
2023-05-12T12:12:23.933Z,27.67
2023-05-12T12:13:26.649Z,27.66
2023-05-12T12:14:29.126Z,27.94
2023-05-12T12:15:31.530Z,27.86
2023-05-12T12:16:33.952Z,27.83
2023-05-12T12:17:36.376Z,27.38
2023-05-12T12:18:38.643Z,27.30
2023-05-12T12:19:41.813Z,27.19
2023-05-12T12:20:45.855Z,27.18
2023-05-12T12:21:51.393Z,27.28
2023-05-12T12:22:54.104Z,26.98
2023-05-12T12:23:56.340Z,27.06
2023-05-12T12:24:58.658Z,27.31
2023-05-12T12:26:00.944Z,26.27
2023-05-12T12:27:04.333Z,26.68
2023-05-12T12:28:06.630Z,26.71
2023-05-12T12:29:08.948Z,26.46
2023-05-12T12:30:12.104Z,26.26
2023-05-12T12:31:16.233Z,25.86
2023-05-12T12:32:18.690Z,26.22
2023-05-12T12:33:20.964Z,26.32
2023-05-12T12:34:23.507Z,26.47
2023-05-12T12:35:26.160Z,26.47
2023-05-12T12:36:28.707Z,26.45
2023-05-12T12:37:31.064Z,26.10
2023-05-12T12:38:33.624Z,25.79
2023-05-12T12:39:35.968Z,25.54
2023-05-12T12:40:38.486Z,25.62
2023-05-12T12:41:41.228Z,25.60
2023-05-12T12:42:43.483Z,25.96
2023-05-12T12:43:45.847Z,26.41
2023-05-12T12:44:50.376Z,26.87
2023-05-12T12:45:54.782Z,27.13
2023-05-12T12:46:57.088Z,27.37
2023-05-12T12:47:59.556Z,27.54
2023-05-12T12:49:01.821Z,27.33
2023-05-12T12:50:04.305Z,27.74
2023-05-12T12:51:07.559Z,27.46
2023-05-12T12:52:09.797Z,27.84
2023-05-12T12:53:12.400Z,28.18
2023-05-12T12:54:16.027Z,27.71
2023-05-12T12:55:18.570Z,27.88
2023-05-12T12:56:23.751Z,27.81
2023-05-12T12:57:27.572Z,27.56
2023-05-12T12:58:29.868Z,27.85
2023-05-12T12:59:32.378Z,27.87
2023-05-12T13:00:34.719Z,27.72
2023-05-12T13:01:37.134Z,27.91
2023-05-12T13:02:40.248Z,27.98
2023-05-12T13:03:42.617Z,27.77
2023-05-12T13:04:44.866Z,27.76
2023-05-12T13:05:47.701Z,27.60
2023-05-12T13:06:50.165Z,27.38
2023-05-12T13:07:52.552Z,27.80
2023-05-12T13:08:54.811Z,27.96
2023-05-12T13:09:57.200Z,28.06
2023-05-12T13:11:01.460Z,27.82
2023-05-12T13:12:04.064Z,27.49
2023-05-12T13:13:06.479Z,27.11
2023-05-12T13:14:08.881Z,27.10
2023-05-12T13:15:11.765Z,27.35
2023-05-12T13:16:14.172Z,27.58
2023-05-12T13:17:16.878Z,27.69
2023-05-12T13:18:19.753Z,27.96
2023-05-12T13:19:22.343Z,27.63
2023-05-12T13:20:24.595Z,27.17
2023-05-12T13:21:27.107Z,27.45
2023-05-12T13:22:29.671Z,27.53
2023-05-12T13:23:31.971Z,27.58
2023-05-12T13:24:34.658Z,27.57
2023-05-12T13:25:36.861Z,27.56
2023-05-12T13:26:39.187Z,27.32
2023-05-12T13:27:41.606Z,26.99
2023-05-12T13:28:44.351Z,26.80
2023-05-12T13:29:49.751Z,26.59
2023-05-12T13:30:52.761Z,26.58
2023-05-12T13:31:55.253Z,26.86
2023-05-12T13:32:57.574Z,26.87
2023-05-12T13:33:59.927Z,26.83
2023-05-12T13:35:02.606Z,26.87
2023-05-12T13:36:05.224Z,26.91
2023-05-12T13:37:07.957Z,27.11
2023-05-12T13:38:11.096Z,27.22
2023-05-12T13:39:13.755Z,27.14
2023-05-12T13:40:16.009Z,27.16
2023-05-12T13:41:18.247Z,27.26
2023-05-12T13:42:22.633Z,27.34